createdAt,value
2022-11-28T00:01:24.691Z,101148.41
2022-11-28T00:03:51.985Z,101146.09
2022-11-28T00:06:19.277Z,101131.31
2022-11-28T00:08:46.495Z,101141.19
2022-11-28T00:11:15.957Z,101146.13
2022-11-28T00:13:43.115Z,101130.31
2022-11-28T00:16:15.420Z,101129.28
2022-11-28T00:18:42.493Z,101124.63
2022-11-28T00:21:12.297Z,101124.13
2022-11-28T00:23:39.974Z,101129.31
2022-11-28T00:26:11.874Z,101125.72
2022-11-28T00:28:38.942Z,101122.06
2022-11-28T00:31:06.116Z,101113.50
2022-11-28T00:33:33.558Z,101120.00
2022-11-28T00:36:02.921Z,101113.00
2022-11-28T00:38:30.246Z,101107.56
2022-11-28T00:41:09.863Z,101100.81
2022-11-28T00:43:37.437Z,101105.50
2022-11-28T00:46:04.523Z,101110.69
2022-11-28T00:48:33.003Z,101102.91
2022-11-28T00:51:11.215Z,101105.50
2022-11-28T00:53:40.664Z,101103.69
2022-11-28T00:56:08.290Z,101103.69
2022-11-28T00:58:36.020Z,101093.06
2022-11-28T01:01:18.249Z,101088.66
2022-11-28T01:03:48.070Z,101088.66
2022-11-28T01:06:22.600Z,101086.84
2022-11-28T01:08:49.788Z,101089.19
2022-11-28T01:11:16.757Z,101075.19
2022-11-28T01:13:43.560Z,101077.00
2022-11-28T01:16:10.954Z,101069.22
2022-11-28T01:18:38.673Z,101060.91
2022-11-28T01:21:07.727Z,101065.09
2022-11-28T01:23:35.301Z,101070.56
2022-11-28T01:26:03.737Z,101072.34
2022-11-28T01:28:30.575Z,101059.38
2022-11-28T01:30:57.376Z,101059.91
2022-11-28T01:33:24.201Z,101052.66
2022-11-28T01:35:55.948Z,101060.44
2022-11-28T01:38:23.273Z,101063.56
2022-11-28T01:40:50.836Z,101065.44
2022-11-28T01:43:18.341Z,101061.78
2022-11-28T01:45:45.696Z,101052.97
2022-11-28T01:48:18.399Z,101063.63
2022-11-28T01:50:50.108Z,101065.19
2022-11-28T01:53:17.832Z,101072.47
2022-11-28T01:55:54.652Z,101068.59
2022-11-28T01:58:21.971Z,101061.59
2022-11-28T02:00:49.249Z,101053.56
2022-11-28T02:03:42.297Z,101045.00
2022-11-28T02:06:10.498Z,101049.69
2022-11-28T02:08:37.666Z,101056.44
2022-11-28T02:11:29.789Z,101051.78
2022-11-28T02:14:14.726Z,101043.50
2022-11-28T02:16:59.487Z,101043.50
2022-11-28T02:20:04.466Z,101038.81
2022-11-28T02:22:36.485Z,101031.03
2022-11-28T02:25:44.536Z,101035.69
2022-11-28T02:28:17.397Z,101030.50
2022-11-28T02:31:07.872Z,101038.81
2022-11-28T02:33:43.696Z,101038.06
2022-11-28T02:36:28.790Z,101030.00
2022-11-28T02:39:27.760Z,101039.34
2022-11-28T02:42:09.487Z,101033.13
2022-11-28T02:45:15.739Z,101034.97
2022-11-28T02:47:54.808Z,101039.88
2022-11-28T02:50:53.283Z,101039.88
2022-11-28T02:53:23.808Z,101042.47
2022-11-28T02:55:52.606Z,101035.47
2022-11-28T02:58:19.390Z,101028.22
2022-11-28T03:00:50.663Z,101037.81
2022-11-28T03:03:38.006Z,101038.84
2022-11-28T03:06:21.533Z,101040.41
2022-11-28T03:09:26.356Z,101040.41
2022-11-28T03:12:02.243Z,101036.78
2022-11-28T03:14:41.971Z,101041.72
2022-11-28T03:17:18.159Z,101034.19
2022-11-28T03:20:17.216Z,101029.00
2022-11-28T03:22:55.895Z,101034.97
2022-11-28T03:25:40.582Z,101031.59
2022-11-28T03:28:49.736Z,101030.53
2022-11-28T03:31:22.315Z,101035.72
2022-11-28T03:33:54.794Z,101033.13
2022-11-28T03:36:29.549Z,101034.19
2022-11-28T03:39:11.269Z,101038.31
2022-11-28T03:41:46.800Z,101036.53
2022-11-28T03:44:27.485Z,101039.13
2022-11-28T03:46:57.077Z,101034.97
2022-11-28T03:49:33.044Z,101035.22
2022-11-28T03:52:04.322Z,101037.81
2022-11-28T03:54:40.665Z,101038.59
2022-11-28T03:57:19.389Z,101034.19
2022-11-28T03:59:54.448Z,101038.59
2022-11-28T04:02:27.123Z,101046.66
2022-11-28T04:05:12.077Z,101046.41
2022-11-28T04:08:29.011Z,101049.78
2022-11-28T04:11:12.900Z,101049.78
2022-11-28T04:13:45.688Z,101050.78
2022-11-28T04:16:37.326Z,101053.91
2022-11-28T04:19:12.897Z,101046.13
2022-11-28T04:21:44.509Z,101050.53
2022-11-28T04:24:17.317Z,101041.19
2022-11-28T04:26:48.957Z,101045.59
2022-11-28T04:29:20.790Z,101051.06
2022-11-28T04:31:50.913Z,101045.59
2022-11-28T04:34:20.404Z,101050.53
2022-11-28T04:36:49.990Z,101037.81
2022-11-28T04:39:21.319Z,101042.22
2022-11-28T04:42:05.614Z,101046.66
2022-11-28T04:44:47.567Z,101046.66
2022-11-28T04:47:14.696Z,101050.25
2022-11-28T04:49:41.811Z,101047.94
2022-11-28T04:52:57.329Z,101044.56
2022-11-28T04:55:30.123Z,101054.97
2022-11-28T04:58:13.397Z,101048.19
2022-11-28T05:00:41.251Z,101053.38
2022-11-28T05:03:09.815Z,101048.19
2022-11-28T05:05:51.073Z,101050.53
2022-11-28T05:08:20.322Z,101054.97
2022-11-28T05:10:47.804Z,101056.78
2022-11-28T05:13:15.124Z,101051.06
2022-11-28T05:15:42.043Z,101061.19
2022-11-28T05:18:09.478Z,101056.25
2022-11-28T05:20:38.291Z,101062.22
2022-11-28T05:23:05.328Z,101069.78
2022-11-28T05:25:32.273Z,101068.19
2022-11-28T05:27:59.069Z,101068.97
2022-11-28T05:30:25.912Z,101078.34
2022-11-28T05:32:52.783Z,101073.16
2022-11-28T05:35:19.627Z,101073.41
2022-11-28T05:37:46.456Z,101077.56
2022-11-28T05:40:13.381Z,101077.56
2022-11-28T05:42:40.169Z,101083.78
2022-11-28T05:45:07.587Z,101074.97
2022-11-28T05:47:34.614Z,101076.78
2022-11-28T05:50:01.405Z,101068.19
2022-11-28T05:52:32.548Z,101077.81
2022-11-28T05:55:00.431Z,101072.63
2022-11-28T05:57:30.071Z,101076.00
2022-11-28T05:59:57.539Z,101077.03
2022-11-28T06:02:25.393Z,101075.75
2022-11-28T06:04:52.275Z,101080.94
2022-11-28T06:07:20.070Z,101085.09
2022-11-28T06:09:47.202Z,101081.47
2022-11-28T06:12:14.016Z,101084.84
2022-11-28T06:14:40.837Z,101082.50
2022-11-28T06:17:07.740Z,101082.50
2022-11-28T06:19:34.640Z,101084.06
2022-11-28T06:22:01.457Z,101077.81
2022-11-28T06:24:28.409Z,101083.53
2022-11-28T06:26:55.437Z,101087.19
2022-11-28T06:29:22.571Z,101085.63
2022-11-28T06:31:49.283Z,101088.22
2022-11-28T06:34:16.581Z,101087.97
2022-11-28T06:36:45.353Z,101087.19
2022-11-28T06:39:15.409Z,101094.75
2022-11-28T06:41:43.115Z,101094.47
2022-11-28T06:44:15.201Z,101095.50
2022-11-28T06:46:43.049Z,101104.84
2022-11-28T06:49:13.690Z,101109.03
2022-11-28T06:51:41.734Z,101097.88
2022-11-28T06:54:09.470Z,101109.81
2022-11-28T06:56:36.496Z,101106.44
2022-11-28T06:59:03.313Z,101110.84
2022-11-28T07:01:31.524Z,101115.78
2022-11-28T07:03:58.477Z,101115.78
2022-11-28T07:06:26.886Z,101117.34
2022-11-28T07:08:53.925Z,101124.09
2022-11-28T07:11:27.772Z,101122.53
2022-11-28T07:13:55.719Z,101122.84
2022-11-28T07:16:25.096Z,101121.00
2022-11-28T07:18:53.051Z,101123.84
2022-11-28T07:21:20.458Z,101129.03
2022-11-28T07:23:47.963Z,101123.06
2022-11-28T07:26:16.998Z,101122.03
2022-11-28T07:28:45.205Z,101126.19
2022-11-28T07:31:14.777Z,101127.22
2022-11-28T07:33:44.023Z,101129.81
2022-11-28T07:36:16.946Z,101134.00
2022-11-28T07:38:47.719Z,101138.16
2022-11-28T07:41:15.328Z,101147.50
2022-11-28T07:43:43.535Z,101146.75
2022-11-28T07:46:13.641Z,101145.94
2022-11-28T07:48:40.499Z,101143.88
2022-11-28T07:51:09.477Z,101149.88
2022-11-28T07:53:36.988Z,101140.25
2022-11-28T07:56:08.894Z,101139.47
2022-11-28T07:58:36.446Z,101147.78
2022-11-28T08:01:11.349Z,101141.78
2022-11-28T08:03:38.527Z,101152.75
2022-11-28T08:06:05.898Z,101154.53
2022-11-28T08:08:33.020Z,101153.53
2022-11-28T08:11:03.077Z,101153.00
2022-11-28T08:13:30.173Z,101151.97
2022-11-28T08:15:57.288Z,101146.53
2022-11-28T08:18:24.125Z,101145.72
2022-11-28T08:20:54.203Z,101150.69
2022-11-28T08:23:21.175Z,101151.22
2022-11-28T08:25:47.958Z,101160.31
2022-11-28T08:28:14.753Z,101165.25
2022-11-28T08:30:44.096Z,101167.63
2022-11-28T08:33:11.427Z,101167.38
2022-11-28T08:35:40.445Z,101163.72
2022-11-28T08:38:07.292Z,101171.50
2022-11-28T08:40:34.118Z,101178.28
2022-11-28T08:43:01.048Z,101177.00
2022-11-28T08:45:27.805Z,101180.88
2022-11-28T08:47:54.667Z,101169.72
2022-11-28T08:50:21.544Z,101172.84
2022-11-28T08:52:48.553Z,101173.38
2022-11-28T08:55:15.522Z,101177.28
2022-11-28T08:57:42.279Z,101176.78
2022-11-28T09:00:10.198Z,101174.41
2022-11-28T09:02:37.037Z,101173.13
2022-11-28T09:05:04.137Z,101176.25
2022-11-28T09:07:31.209Z,101181.97
2022-11-28T09:09:58.157Z,101185.63
2022-11-28T09:12:25.152Z,101179.91
2022-11-28T09:14:52.103Z,101184.59
2022-11-28T09:17:19.051Z,101186.97
2022-11-28T09:19:46.052Z,101191.63
2022-11-28T09:22:12.960Z,101198.13
2022-11-28T09:24:40.286Z,101184.88
2022-11-28T09:27:07.182Z,101179.44
2022-11-28T09:29:34.097Z,101184.13
2022-11-28T09:32:00.934Z,101187.50
2022-11-28T09:34:28.041Z,101193.47
2022-11-28T09:36:54.896Z,101189.56
2022-11-28T09:39:21.705Z,101189.84
2022-11-28T09:42:08.692Z,101190.38
2022-11-28T09:44:43.529Z,101192.47
2022-11-28T09:47:35.134Z,101197.69
2022-11-28T09:50:10.760Z,101202.63
2022-11-28T09:52:49.452Z,101197.94
2022-11-28T09:55:24.976Z,101192.50
2022-11-28T09:57:53.561Z,101194.56
2022-11-28T10:00:35.126Z,101197.44
2022-11-28T10:03:35.257Z,101195.09
2022-11-28T10:06:16.187Z,101192.50
2022-11-28T10:09:04.842Z,101188.84
2022-11-28T10:11:55.881Z,101194.06
2022-11-28T10:14:31.782Z,101199.78
2022-11-28T10:17:34.535Z,101200.31
2022-11-28T10:20:23.259Z,101207.59
2022-11-28T10:22:59.436Z,101208.09
2022-11-28T10:25:34.277Z,101210.22
2022-11-28T10:28:04.091Z,101210.47
2022-11-28T10:30:37.748Z,101197.97
2022-11-28T10:33:17.152Z,101204.47
2022-11-28T10:35:51.397Z,101200.56
2022-11-28T10:38:21.124Z,101200.84
2022-11-28T10:41:11.093Z,101201.63
2022-11-28T10:44:05.406Z,101205.28
2022-11-28T10:46:45.889Z,101198.75
2022-11-28T10:49:24.918Z,101205.00
2022-11-28T10:51:58.236Z,101207.63
2022-11-28T10:54:34.101Z,101212.31
2022-11-28T10:57:15.701Z,101208.41
2022-11-28T11:00:09.893Z,101213.59
2022-11-28T11:02:38.778Z,101206.06
2022-11-28T11:05:06.872Z,101203.97
2022-11-28T11:07:34.691Z,101194.59
2022-11-28T11:10:23.743Z,101206.88
2022-11-28T11:12:55.294Z,101201.38
2022-11-28T11:15:32.492Z,101197.75
2022-11-28T11:18:05.651Z,101200.63
2022-11-28T11:20:36.149Z,101195.13
2022-11-28T11:23:15.686Z,101207.91
2022-11-28T11:25:51.457Z,101206.59
2022-11-28T11:28:44.329Z,101211.03
2022-11-28T11:31:44.864Z,101219.63
2022-11-28T11:34:18.235Z,101220.66
2022-11-28T11:36:45.508Z,101224.31
2022-11-28T11:39:12.665Z,101218.56
2022-11-28T11:41:44.956Z,101219.09
2022-11-28T11:44:14.771Z,101218.31
2022-11-28T11:46:51.522Z,101218.03
2022-11-28T11:49:33.879Z,101212.81
2022-11-28T11:52:04.458Z,101212.06
2022-11-28T11:54:31.802Z,101215.44
2022-11-28T11:57:24.982Z,101221.44
2022-11-28T11:59:52.821Z,101224.28
2022-11-28T12:02:49.607Z,101224.81
2022-11-28T12:05:18.487Z,101217.00
2022-11-28T12:07:51.321Z,101217.00
2022-11-28T12:10:22.500Z,101220.91
2022-11-28T12:12:49.395Z,101224.81
2022-11-28T12:15:25.712Z,101223.25
2022-11-28T12:17:59.161Z,101217.22
2022-11-28T12:20:41.236Z,101220.88
2022-11-28T12:23:32.708Z,101218.53
2022-11-28T12:26:10.279Z,101225.56
2022-11-28T12:29:01.417Z,101219.59
2022-11-28T12:31:48.526Z,101221.66
2022-11-28T12:34:34.544Z,101221.66
2022-11-28T12:37:13.452Z,101220.06
2022-11-28T12:39:46.495Z,101227.38
2022-11-28T12:42:13.610Z,101222.16
2022-11-28T12:45:16.199Z,101228.97
2022-11-28T12:48:03.574Z,101227.91
2022-11-28T12:50:35.869Z,101216.69
2022-11-28T12:56:17.446Z,101221.41
2022-11-28T12:58:54.513Z,101227.13
2022-11-28T13:01:48.512Z,101227.91
2022-11-28T13:08:08.451Z,101217.47
2022-11-28T13:13:52.906Z,101222.44
2022-11-28T13:16:31.949Z,101230.50
2022-11-28T13:19:11.556Z,101226.59
2022-11-28T13:22:04.395Z,101227.34
2022-11-28T13:25:02.644Z,101226.59
2022-11-28T13:27:41.580Z,101234.41
2022-11-28T13:30:22.621Z,101229.44
2022-11-28T13:33:10.999Z,101231.28
2022-11-28T13:35:41.950Z,101234.41
2022-11-28T13:38:39.273Z,101240.38
2022-11-28T13:46:51.592Z,101248.22
2022-11-28T13:49:30.603Z,101244.03
2022-11-28T13:52:19.232Z,101247.69
2022-11-28T13:54:54.006Z,101256.53
2022-11-28T13:57:39.910Z,101255.50
2022-11-28T14:00:27.930Z,101256.53
2022-11-28T14:03:00.089Z,101252.91
2022-11-28T14:05:37.275Z,101255.78
2022-11-28T14:08:05.942Z,101256.03
2022-11-28T14:11:01.999Z,101268.81
2022-11-28T14:14:01.237Z,101278.47
2022-11-28T14:16:54.169Z,101270.63
2022-11-28T14:19:39.280Z,101276.63
2022-11-28T14:22:06.054Z,101279.50
2022-11-28T14:24:45.180Z,101280.28
2022-11-28T14:27:20.120Z,101280.28
2022-11-28T14:29:51.219Z,101282.63
2022-11-28T14:32:41.069Z,101283.41
2022-11-28T14:35:50.947Z,101287.06
2022-11-28T14:38:35.740Z,101281.84
2022-11-28T14:41:06.475Z,101288.88
2022-11-28T14:43:37.892Z,101286.28
2022-11-28T14:46:26.183Z,101293.84
2022-11-28T14:48:59.350Z,101286.78
2022-11-28T14:51:44.501Z,101285.22
2022-11-28T14:54:42.291Z,101286.28
2022-11-28T14:57:20.655Z,101291.50
2022-11-28T14:59:48.579Z,101289.91
2022-11-28T15:02:36.700Z,101291.50
2022-11-28T15:05:23.065Z,101300.34
2022-11-28T15:08:16.185Z,101289.41
2022-11-28T15:11:01.295Z,101287.31
2022-11-28T15:13:49.906Z,101299.31
2022-11-28T15:16:20.133Z,101304.28
2022-11-28T15:18:54.086Z,101307.66
2022-11-28T15:21:22.783Z,101302.69
2022-11-28T15:23:50.310Z,101311.28
2022-11-28T15:26:21.855Z,101310.53
2022-11-28T15:28:48.838Z,101310.28
2022-11-28T15:31:25.180Z,101310.28
2022-11-28T15:33:52.089Z,101314.44
2022-11-28T15:36:28.205Z,101310.28
2022-11-28T15:38:56.401Z,101313.91
2022-11-28T15:41:25.538Z,101312.09
2022-11-28T15:43:54.500Z,101315.47
2022-11-28T15:46:31.782Z,101324.59
2022-11-28T15:48:58.887Z,101325.91
2022-11-28T15:51:34.260Z,101331.09
2022-11-28T15:54:05.406Z,101333.19
2022-11-28T15:56:34.911Z,101335.53
2022-11-28T15:59:02.001Z,101338.16
2022-11-28T16:01:31.071Z,101342.59
2022-11-28T16:04:13.651Z,101342.84
2022-11-28T16:06:43.190Z,101336.84
2022-11-28T16:09:35.155Z,101333.44
2022-11-28T16:12:04.707Z,101338.66
2022-11-28T16:14:34.855Z,101336.59
2022-11-28T16:17:07.504Z,101341.78
2022-11-28T16:19:38.101Z,101344.16
2022-11-28T16:22:09.125Z,101352.47
2022-11-28T16:24:48.553Z,101361.34
2022-11-28T16:27:34.928Z,101356.13
2022-11-28T16:30:23.426Z,101366.03
2022-11-28T16:32:52.120Z,101368.66
2022-11-28T16:35:41.793Z,101367.06
2022-11-28T16:38:16.697Z,101366.03
2022-11-28T16:40:44.078Z,101367.06
2022-11-28T16:43:32.720Z,101373.31
2022-11-28T16:46:02.753Z,101381.91
2022-11-28T16:48:34.311Z,101376.72
2022-11-28T16:51:13.399Z,101380.63
2022-11-28T16:53:44.812Z,101380.88
2022-11-28T16:56:29.790Z,101382.69
2022-11-28T16:59:16.810Z,101380.34
2022-11-28T17:01:49.556Z,101387.38
2022-11-28T17:04:22.588Z,101387.13
2022-11-28T17:06:50.435Z,101384.78
2022-11-28T17:09:18.240Z,101387.38
2022-11-28T17:12:08.715Z,101405.63
2022-11-28T17:14:37.678Z,101396.22
2022-11-28T17:17:12.215Z,101403.25
2022-11-28T17:19:39.263Z,101402.50
2022-11-28T17:22:07.716Z,101407.16
2022-11-28T17:24:36.097Z,101408.19
2022-11-28T17:27:04.014Z,101415.50
2022-11-28T17:29:30.877Z,101414.44
2022-11-28T17:31:59.071Z,101417.03
2022-11-28T17:34:28.469Z,101415.47
2022-11-28T17:36:55.368Z,101413.56
2022-11-28T17:39:22.244Z,101415.94
2022-11-28T17:41:51.885Z,101408.34
2022-11-28T17:44:21.517Z,101418.75
2022-11-28T17:46:50.535Z,101415.34
2022-11-28T17:49:17.876Z,101424.69
2022-11-28T17:51:44.832Z,101425.19
2022-11-28T17:54:16.457Z,101425.72
2022-11-28T17:56:44.612Z,101425.44
2022-11-28T17:59:16.299Z,101429.31
2022-11-28T18:01:44.242Z,101432.19
2022-11-28T18:04:11.754Z,101432.94
2022-11-28T18:06:39.033Z,101434.47
2022-11-28T18:09:11.671Z,101440.69
2022-11-28T18:11:39.446Z,101443.50
2022-11-28T18:14:06.653Z,101436.97
2022-11-28T18:16:35.741Z,101438.53
2022-11-28T18:19:03.975Z,101435.38
2022-11-28T18:21:31.199Z,101441.09
2022-11-28T18:23:57.980Z,101437.69
2022-11-28T18:26:26.338Z,101441.84
2022-11-28T18:28:54.319Z,101447.78
2022-11-28T18:31:23.564Z,101450.34
2022-11-28T18:33:50.942Z,101445.66
2022-11-28T18:36:23.587Z,101446.13
2022-11-28T18:38:54.571Z,101440.69
2022-11-28T18:41:21.514Z,101449.19
2022-11-28T18:43:48.461Z,101448.13
2022-11-28T18:46:21.112Z,101453.84
2022-11-28T18:48:48.283Z,101448.09
2022-11-28T18:51:17.945Z,101456.38
2022-11-28T18:53:46.247Z,101457.66
2022-11-28T18:56:14.264Z,101465.22
2022-11-28T18:58:43.652Z,101463.63
2022-11-28T19:01:16.761Z,101472.19
2022-11-28T19:03:48.279Z,101475.25
2022-11-28T19:06:15.505Z,101483.03
2022-11-28T19:08:42.972Z,101480.91
2022-11-28T19:11:13.472Z,101469.72
2022-11-28T19:13:41.920Z,101478.53
2022-11-28T19:16:18.387Z,101482.44
2022-11-28T19:18:45.690Z,101485.31
2022-11-28T19:21:15.337Z,101483.75
2022-11-28T19:23:42.359Z,101478.06
2022-11-28T19:26:12.282Z,101478.38
2022-11-28T19:28:40.725Z,101480.72
2022-11-28T19:31:12.933Z,101490.63
2022-11-28T19:33:39.799Z,101491.16
2022-11-28T19:36:08.653Z,101488.56
2022-11-28T19:38:36.573Z,101492.75
2022-11-28T19:41:15.112Z,101495.34
2022-11-28T19:43:41.893Z,101490.69
2022-11-28T19:46:09.684Z,101493.28
2022-11-28T19:48:38.128Z,101482.38
2022-11-28T19:51:06.050Z,101492.28
2022-11-28T19:53:34.201Z,101495.16
2022-11-28T19:56:06.226Z,101493.91
2022-11-28T19:58:35.418Z,101504.84
2022-11-28T20:01:16.751Z,101502.78
2022-11-28T20:03:44.311Z,101503.06
2022-11-28T20:06:14.524Z,101508.00
2022-11-28T20:08:41.898Z,101520.53
2022-11-28T20:11:11.334Z,101523.66
2022-11-28T20:13:38.200Z,101520.03
2022-11-28T20:16:07.407Z,101522.38
2022-11-28T20:18:37.182Z,101522.13
2022-11-28T20:21:08.497Z,101523.69
2022-11-28T20:23:44.438Z,101513.06
2022-11-28T20:26:13.241Z,101510.97
2022-11-28T20:28:41.804Z,101512.03
2022-11-28T20:31:27.443Z,101510.75
2022-11-28T20:33:54.746Z,101524.53
2022-11-28T20:36:23.502Z,101529.19
2022-11-28T20:38:51.651Z,101525.81
2022-11-28T20:41:20.421Z,101544.25
2022-11-28T20:43:47.968Z,101538.28
2022-11-28T20:46:16.367Z,101544.25
2022-11-28T20:48:44.022Z,101548.19
2022-11-28T20:51:13.732Z,101542.97
2022-11-28T20:53:41.624Z,101542.97
2022-11-28T20:56:12.411Z,101533.63
2022-11-28T20:58:39.689Z,101549.22
2022-11-28T21:01:07.042Z,101538.56
2022-11-28T21:03:34.495Z,101547.16
2022-11-28T21:06:01.775Z,101554.19
2022-11-28T21:08:31.489Z,101556.47
2022-11-28T21:10:58.209Z,101554.91
2022-11-28T21:13:25.377Z,101555.16
2022-11-28T21:15:53.603Z,101552.03
2022-11-28T21:18:20.547Z,101559.56
2022-11-28T21:20:47.413Z,101559.84
2022-11-28T21:23:17.353Z,101556.97
2022-11-28T21:25:45.830Z,101558.78
2022-11-28T21:28:12.935Z,101561.94
2022-11-28T21:30:42.717Z,101571.84
2022-11-28T21:33:11.561Z,101565.06
2022-11-28T21:35:39.411Z,101571.84
2022-11-28T21:38:07.394Z,101578.38
2022-11-28T21:40:34.288Z,101577.31
2022-11-28T21:43:01.076Z,101583.31
2022-11-28T21:45:27.948Z,101578.38
2022-11-28T21:47:54.917Z,101586.72
2022-11-28T21:50:21.665Z,101581.50
2022-11-28T21:52:48.541Z,101579.69
2022-11-28T21:55:15.506Z,101578.44
2022-11-28T21:57:42.438Z,101575.81
2022-11-28T22:00:25.654Z,101575.81
2022-11-28T22:03:02.954Z,101585.66
2022-11-28T22:05:32.988Z,101588.03
2022-11-28T22:08:00.346Z,101588.84
2022-11-28T22:10:27.472Z,101589.31
2022-11-28T22:12:54.169Z,101589.31
2022-11-28T22:15:21.066Z,101591.13
2022-11-28T22:17:47.922Z,101600.25
2022-11-28T22:20:14.741Z,101594.03
2022-11-28T22:22:41.598Z,101601.56
2022-11-28T22:25:08.530Z,101600.78
2022-11-28T22:27:38.248Z,101601.03
2022-11-28T22:30:07.483Z,101598.19
2022-11-28T22:32:34.267Z,101596.38
2022-11-28T22:35:02.813Z,101601.56
2022-11-28T22:37:29.684Z,101603.38
2022-11-28T22:39:56.462Z,101600.78
2022-11-28T22:42:23.295Z,101607.56
2022-11-28T22:44:50.131Z,101602.38
2022-11-28T22:47:17.035Z,101614.41
2022-11-28T22:49:43.931Z,101616.19
2022-11-28T22:52:10.773Z,101615.41
2022-11-28T22:54:37.574Z,101614.63
2022-11-28T22:57:04.545Z,101617.00
2022-11-28T22:59:33.879Z,101617.78
2022-11-28T23:02:01.471Z,101623.28
2022-11-28T23:04:28.398Z,101623.28
2022-11-28T23:06:55.352Z,101622.75
2022-11-28T23:09:22.455Z,101618.56
2022-11-28T23:11:49.331Z,101621.94
2022-11-28T23:14:16.109Z,101618.06
2022-11-28T23:16:44.507Z,101620.69
2022-11-28T23:19:15.671Z,101620.41
2022-11-28T23:21:45.925Z,101622.75
2022-11-28T23:24:18.896Z,101623.28
2022-11-28T23:26:46.520Z,101624.06
2022-11-28T23:29:14.220Z,101622.47
2022-11-28T23:31:42.627Z,101628.19
2022-11-28T23:34:10.676Z,101625.34
2022-11-28T23:36:47.790Z,101621.69
2022-11-28T23:39:20.223Z,101619.63
2022-11-28T23:41:47.667Z,101628.22
2022-11-28T23:44:16.008Z,101627.44
2022-11-28T23:46:43.290Z,101628.47
2022-11-28T23:49:10.969Z,101632.88
2022-11-28T23:51:40.219Z,101633.69
2022-11-28T23:54:08.077Z,101632.88
2022-11-28T23:56:36.350Z,101636.81
2022-11-28T23:59:06.543Z,101633.19
